LICC/CTA METAR and TAF weather

Enter ICAO airport designator
Station Type Date Time Source
LICC METAR 2022/11/26 09:50 UTC NOAA

LICC 260950Z 03006KT 9999 FEW009 BKN015 14/14 Q1015


Station Type Date Time Source
LICC Decoded METAR 2022/11/26 09:50 UTC NOAA

Catania / Fontanarossa, Italy (LICC) 37-28N 015-03E 17M
Nov 26, 2022 - 04:50 AM EST / 2022.11.26 0950 UTC
Wind: from the NNE (030 degrees) at 7 MPH (6 KT):0
Visibility: greater than 7 mile(s):0
Sky conditions: mostly cloudy
Temperature: 57 F (14 C)
Dew Point: 57 F (14 C)
Relative Humidity: 100%
Pressure (altimeter): 29.97 in. Hg (1015 hPa)
ob: LICC 260950Z 03006KT 9999 FEW009 BKN015 14/14 Q1015
cycle: 10

Station Type Date Time Source
LICC TAF 2022/11/26 06:24 UTC NOAA

LICC 260500Z 2606/2706 26005KT 9999 SCT050
TEMPO 2606/2612 3000 +TSRA
BECMG 2610/2612 08013KT
TEMPO 2612/2622 4000 SHRA
BECMG 2618/2620 06018G30KT
TEMPO 2622/2706 4000 TSRA

Example: see airport list